sensor_id;sensor_type;location;lat;lon;timestamp;temperature;humidity
15133;DHT22;7667;51.232;17.110;2023-04-24T00:00:43;11.20;99.90
15133;DHT22;7667;51.232;17.110;2023-04-24T00:03:12;11.20;99.90
15133;DHT22;7667;51.232;17.110;2023-04-24T00:05:40;11.20;99.90
15133;DHT22;7667;51.232;17.110;2023-04-24T00:08:08;11.30;99.90
15133;DHT22;7667;51.232;17.110;2023-04-24T00:10:35;11.20;99.90
15133;DHT22;7667;51.232;17.110;2023-04-24T00:13:03;11.30;99.90
15133;DHT22;7667;51.232;17.110;2023-04-24T00:15:31;11.30;99.90
15133;DHT22;7667;51.232;17.110;2023-04-24T00:17:59;11.30;99.90
15133;DHT22;7667;51.232;17.110;2023-04-24T00:20:28;11.50;99.90
15133;DHT22;7667;51.232;17.110;2023-04-24T00:22:56;11.60;99.90
15133;DHT22;7667;51.232;17.110;2023-04-24T00:25:24;11.60;99.90
15133;DHT22;7667;51.232;17.110;2023-04-24T00:27:51;11.70;99.90
15133;DHT22;7667;51.232;17.110;2023-04-24T00:30:19;11.80;99.90
15133;DHT22;7667;51.232;17.110;2023-04-24T00:32:46;11.80;99.90
15133;DHT22;7667;51.232;17.110;2023-04-24T00:35:14;11.80;99.90
15133;DHT22;7667;51.232;17.110;2023-04-24T00:37:42;11.90;99.90
15133;DHT22;7667;51.232;17.110;2023-04-24T00:40:10;11.90;99.90
15133;DHT22;7667;51.232;17.110;2023-04-24T00:42:39;11.90;99.90
15133;DHT22;7667;51.232;17.110;2023-04-24T00:45:07;11.80;99.90
15133;DHT22;7667;51.232;17.110;2023-04-24T00:47:35;11.80;99.90
15133;DHT22;7667;51.232;17.110;2023-04-24T00:50:04;11.80;99.90
15133;DHT22;7667;51.232;17.110;2023-04-24T00:52:33;11.70;99.90
15133;DHT22;7667;51.232;17.110;2023-04-24T00:55:01;11.60;99.90
15133;DHT22;7667;51.232;17.110;2023-04-24T00:57:30;11.60;99.90
15133;DHT22;7667;51.232;17.110;2023-04-24T00:59:58;11.50;99.90
15133;DHT22;7667;51.232;17.110;2023-04-24T01:02:25;11.60;99.90
15133;DHT22;7667;51.232;17.110;2023-04-24T01:04:54;11.60;99.90
15133;DHT22;7667;51.232;17.110;2023-04-24T01:07:21;11.60;99.90
15133;DHT22;7667;51.232;17.110;2023-04-24T01:09:49;11.60;99.90
15133;DHT22;7667;51.232;17.110;2023-04-24T01:12:19;11.50;99.90
15133;DHT22;7667;51.232;17.110;2023-04-24T01:14:47;11.50;99.90
15133;DHT22;7667;51.232;17.110;2023-04-24T01:17:14;11.40;99.90
15133;DHT22;7667;51.232;17.110;2023-04-24T01:19:42;11.40;99.90
15133;DHT22;7667;51.232;17.110;2023-04-24T01:22:15;11.30;99.90
15133;DHT22;7667;51.232;17.110;2023-04-24T01:24:44;11.30;99.90
15133;DHT22;7667;51.232;17.110;2023-04-24T01:27:12;11.20;99.90
15133;DHT22;7667;51.232;17.110;2023-04-24T01:29:40;11.20;99.90
15133;DHT22;7667;51.232;17.110;2023-04-24T01:32:08;11.20;99.90
15133;DHT22;7667;51.232;17.110;2023-04-24T01:34:37;11.20;99.90
15133;DHT22;7667;51.232;17.110;2023-04-24T01:37:06;11.20;99.90
15133;DHT22;7667;51.232;17.110;2023-04-24T01:39:34;11.20;99.90
15133;DHT22;7667;51.232;17.110;2023-04-24T01:42:02;11.20;99.90
15133;DHT22;7667;51.232;17.110;2023-04-24T01:44:30;11.20;99.90
15133;DHT22;7667;51.232;17.110;2023-04-24T01:47:00;11.20;99.90
15133;DHT22;7667;51.232;17.110;2023-04-24T01:49:28;11.20;99.90
15133;DHT22;7667;51.232;17.110;2023-04-24T01:51:55;11.20;99.90
15133;DHT22;7667;51.232;17.110;2023-04-24T01:54:23;11.20;99.90
15133;DHT22;7667;51.232;17.110;2023-04-24T01:56:51;11.20;99.90
15133;DHT22;7667;51.232;17.110;2023-04-24T01:59:20;11.30;99.90
15133;DHT22;7667;51.232;17.110;2023-04-24T02:01:48;11.20;99.90
15133;DHT22;7667;51.232;17.110;2023-04-24T02:04:16;11.30;99.90
15133;DHT22;7667;51.232;17.110;2023-04-24T02:06:44;11.20;99.90
15133;DHT22;7667;51.232;17.110;2023-04-24T02:09:11;11.20;99.90
15133;DHT22;7667;51.232;17.110;2023-04-24T02:11:39;11.20;99.90
15133;DHT22;7667;51.232;17.110;2023-04-24T02:14:06;11.20;99.90
15133;DHT22;7667;51.232;17.110;2023-04-24T02:16:34;11.20;99.90
15133;DHT22;7667;51.232;17.110;2023-04-24T02:19:03;11.20;99.90
15133;DHT22;7667;51.232;17.110;2023-04-24T02:21:31;11.20;99.90
15133;DHT22;7667;51.232;17.110;2023-04-24T02:23:58;11.20;99.90
15133;DHT22;7667;51.232;17.110;2023-04-24T02:26:26;11.20;99.90
15133;DHT22;7667;51.232;17.110;2023-04-24T02:28:54;11.20;99.90
15133;DHT22;7667;51.232;17.110;2023-04-24T02:31:21;11.30;99.90
15133;DHT22;7667;51.232;17.110;2023-04-24T02:33:49;11.30;99.90
15133;DHT22;7667;51.232;17.110;2023-04-24T02:36:17;11.30;99.90
15133;DHT22;7667;51.232;17.110;2023-04-24T02:38:44;11.20;99.90
15133;DHT22;7667;51.232;17.110;2023-04-24T02:41:12;11.30;99.90
15133;DHT22;7667;51.232;17.110;2023-04-24T02:43:40;11.10;99.90
15133;DHT22;7667;51.232;17.110;2023-04-24T02:46:07;11.00;99.90
15133;DHT22;7667;51.232;17.110;2023-04-24T02:48:35;11.00;99.90
15133;DHT22;7667;51.232;17.110;2023-04-24T02:51:03;10.90;99.90
15133;DHT22;7667;51.232;17.110;2023-04-24T02:53:30;10.80;99.90
15133;DHT22;7667;51.232;17.110;2023-04-24T02:55:58;10.80;99.90
15133;DHT22;7667;51.232;17.110;2023-04-24T02:58:26;10.80;99.90
15133;DHT22;7667;51.232;17.110;2023-04-24T03:00:54;10.80;99.90
15133;DHT22;7667;51.232;17.110;2023-04-24T03:03:25;10.90;99.90
15133;DHT22;7667;51.232;17.110;2023-04-24T03:05:53;10.90;99.90
15133;DHT22;7667;51.232;17.110;2023-04-24T03:08:20;10.80;99.90
15133;DHT22;7667;51.232;17.110;2023-04-24T03:10:48;10.80;99.90
15133;DHT22;7667;51.232;17.110;2023-04-24T03:13:16;10.80;99.90
15133;DHT22;7667;51.232;17.110;2023-04-24T03:15:44;10.80;99.90
15133;DHT22;7667;51.232;17.110;2023-04-24T03:18:13;10.80;99.90
15133;DHT22;7667;51.232;17.110;2023-04-24T03:20:41;10.80;99.90
15133;DHT22;7667;51.232;17.110;2023-04-24T03:23:09;10.80;99.90
15133;DHT22;7667;51.232;17.110;2023-04-24T03:25:37;10.70;99.90
15133;DHT22;7667;51.232;17.110;2023-04-24T03:28:04;10.70;99.90
15133;DHT22;7667;51.232;17.110;2023-04-24T03:30:32;10.70;99.90
15133;DHT22;7667;51.232;17.110;2023-04-24T03:33:00;10.70;99.90
15133;DHT22;7667;51.232;17.110;2023-04-24T03:35:28;10.60;99.90
15133;DHT22;7667;51.232;17.110;2023-04-24T03:37:55;10.70;99.90
15133;DHT22;7667;51.232;17.110;2023-04-24T03:40:23;10.70;99.90
15133;DHT22;7667;51.232;17.110;2023-04-24T03:42:50;10.70;99.90
15133;DHT22;7667;51.232;17.110;2023-04-24T03:45:18;10.80;99.90
15133;DHT22;7667;51.232;17.110;2023-04-24T03:47:45;10.80;99.90
15133;DHT22;7667;51.232;17.110;2023-04-24T03:50:13;10.90;99.90
15133;DHT22;7667;51.232;17.110;2023-04-24T03:52:41;10.90;99.90
15133;DHT22;7667;51.232;17.110;2023-04-24T03:55:08;10.80;99.90
15133;DHT22;7667;51.232;17.110;2023-04-24T03:57:40;10.80;99.90
15133;DHT22;7667;51.232;17.110;2023-04-24T04:00:08;10.90;99.90
15133;DHT22;7667;51.232;17.110;2023-04-24T04:02:37;10.80;99.90
15133;DHT22;7667;51.232;17.110;2023-04-24T04:05:04;10.90;99.90
15133;DHT22;7667;51.232;17.110;2023-04-24T04:07:32;10.90;99.90
15133;DHT22;7667;51.232;17.110;2023-04-24T04:10:00;10.80;99.90
15133;DHT22;7667;51.232;17.110;2023-04-24T04:12:28;10.80;99.90
15133;DHT22;7667;51.232;17.110;2023-04-24T04:14:55;10.80;99.90
15133;DHT22;7667;51.232;17.110;2023-04-24T04:17:23;10.80;99.90
15133;DHT22;7667;51.232;17.110;2023-04-24T04:19:50;10.80;99.90
15133;DHT22;7667;51.232;17.110;2023-04-24T04:22:18;10.80;99.90
15133;DHT22;7667;51.232;17.110;2023-04-24T04:24:45;10.70;99.90
15133;DHT22;7667;51.232;17.110;2023-04-24T04:27:13;10.70;99.90
15133;DHT22;7667;51.232;17.110;2023-04-24T04:29:41;10.70;99.90
15133;DHT22;7667;51.232;17.110;2023-04-24T04:32:09;10.60;99.90
15133;DHT22;7667;51.232;17.110;2023-04-24T04:34:37;10.50;99.90
15133;DHT22;7667;51.232;17.110;2023-04-24T04:37:05;10.40;99.90
15133;DHT22;7667;51.232;17.110;2023-04-24T04:39:32;10.50;99.90
15133;DHT22;7667;51.232;17.110;2023-04-24T04:42:00;10.30;99.90
15133;DHT22;7667;51.232;17.110;2023-04-24T04:44:28;10.40;99.90
15133;DHT22;7667;51.232;17.110;2023-04-24T04:46:56;10.50;99.90
15133;DHT22;7667;51.232;17.110;2023-04-24T04:49:24;10.60;99.90
15133;DHT22;7667;51.232;17.110;2023-04-24T04:51:52;10.60;99.90
15133;DHT22;7667;51.232;17.110;2023-04-24T04:54:20;10.60;99.90
15133;DHT22;7667;51.232;17.110;2023-04-24T04:56:50;10.70;99.90
15133;DHT22;7667;51.232;17.110;2023-04-24T04:59:17;10.70;99.90
15133;DHT22;7667;51.232;17.110;2023-04-24T05:01:45;10.80;99.90
15133;DHT22;7667;51.232;17.110;2023-04-24T05:04:12;10.90;99.90
15133;DHT22;7667;51.232;17.110;2023-04-24T05:06:40;11.10;99.90
15133;DHT22;7667;51.232;17.110;2023-04-24T05:09:08;11.20;99.90
15133;DHT22;7667;51.232;17.110;2023-04-24T05:11:35;11.50;99.90
15133;DHT22;7667;51.232;17.110;2023-04-24T05:14:03;11.70;99.90
15133;DHT22;7667;51.232;17.110;2023-04-24T05:16:31;12.00;99.90
15133;DHT22;7667;51.232;17.110;2023-04-24T05:18:58;12.20;99.90
15133;DHT22;7667;51.232;17.110;2023-04-24T05:21:26;12.40;99.90
15133;DHT22;7667;51.232;17.110;2023-04-24T05:23:53;12.50;99.90
15133;DHT22;7667;51.232;17.110;2023-04-24T05:26:21;12.70;99.90
15133;DHT22;7667;51.232;17.110;2023-04-24T05:28:49;12.80;99.90
15133;DHT22;7667;51.232;17.110;2023-04-24T05:31:17;13.00;99.90
15133;DHT22;7667;51.232;17.110;2023-04-24T05:33:45;13.10;99.90
15133;DHT22;7667;51.232;17.110;2023-04-24T05:36:12;13.20;99.90
15133;DHT22;7667;51.232;17.110;2023-04-24T05:38:40;13.20;99.90
15133;DHT22;7667;51.232;17.110;2023-04-24T05:41:08;13.30;99.90
15133;DHT22;7667;51.232;17.110;2023-04-24T05:43:35;13.30;99.90
15133;DHT22;7667;51.232;17.110;2023-04-24T05:46:03;13.30;99.90
15133;DHT22;7667;51.232;17.110;2023-04-24T05:48:30;13.40;99.90
15133;DHT22;7667;51.232;17.110;2023-04-24T05:50:58;13.50;99.90
15133;DHT22;7667;51.232;17.110;2023-04-24T05:53:26;13.50;99.90
15133;DHT22;7667;51.232;17.110;2023-04-24T05:55:54;13.60;99.90
15133;DHT22;7667;51.232;17.110;2023-04-24T05:58:21;13.60;99.90
15133;DHT22;7667;51.232;17.110;2023-04-24T06:00:49;13.50;99.90
15133;DHT22;7667;51.232;17.110;2023-04-24T06:03:17;13.50;99.90
15133;DHT22;7667;51.232;17.110;2023-04-24T06:05:44;13.50;99.90
15133;DHT22;7667;51.232;17.110;2023-04-24T06:08:12;13.60;99.90
15133;DHT22;7667;51.232;17.110;2023-04-24T06:10:40;13.60;99.90
15133;DHT22;7667;51.232;17.110;2023-04-24T06:13:08;13.80;99.90
15133;DHT22;7667;51.232;17.110;2023-04-24T06:15:35;13.90;99.90
15133;DHT22;7667;51.232;17.110;2023-04-24T06:18:03;14.20;99.90
15133;DHT22;7667;51.232;17.110;2023-04-24T06:20:31;14.50;99.90
15133;DHT22;7667;51.232;17.110;2023-04-24T06:22:59;14.50;99.90
15133;DHT22;7667;51.232;17.110;2023-04-24T06:25:27;14.60;99.90
15133;DHT22;7667;51.232;17.110;2023-04-24T06:27:55;14.60;99.90
15133;DHT22;7667;51.232;17.110;2023-04-24T06:30:23;14.70;99.90
15133;DHT22;7667;51.232;17.110;2023-04-24T06:32:52;14.80;99.90
15133;DHT22;7667;51.232;17.110;2023-04-24T06:35:23;14.80;99.90
15133;DHT22;7667;51.232;17.110;2023-04-24T06:37:51;14.90;99.90
15133;DHT22;7667;51.232;17.110;2023-04-24T06:40:18;15.00;99.90
15133;DHT22;7667;51.232;17.110;2023-04-24T06:42:46;15.10;99.90
15133;DHT22;7667;51.232;17.110;2023-04-24T06:45:13;15.20;99.90
15133;DHT22;7667;51.232;17.110;2023-04-24T06:47:41;15.30;99.90
15133;DHT22;7667;51.232;17.110;2023-04-24T06:50:09;15.10;99.90
15133;DHT22;7667;51.232;17.110;2023-04-24T06:52:38;15.00;99.90
15133;DHT22;7667;51.232;17.110;2023-04-24T06:55:06;15.00;99.90
15133;DHT22;7667;51.232;17.110;2023-04-24T06:57:34;15.10;99.90
15133;DHT22;7667;51.232;17.110;2023-04-24T07:00:03;15.10;99.90
15133;DHT22;7667;51.232;17.110;2023-04-24T07:02:32;15.10;99.90
15133;DHT22;7667;51.232;17.110;2023-04-24T07:05:00;15.20;99.90
15133;DHT22;7667;51.232;17.110;2023-04-24T07:07:28;15.30;99.90
15133;DHT22;7667;51.232;17.110;2023-04-24T07:09:56;15.40;99.90
15133;DHT22;7667;51.232;17.110;2023-04-24T07:12:24;15.40;99.90
15133;DHT22;7667;51.232;17.110;2023-04-24T07:14:52;15.20;99.90
15133;DHT22;7667;51.232;17.110;2023-04-24T07:17:19;15.20;99.90
15133;DHT22;7667;51.232;17.110;2023-04-24T07:19:47;15.20;99.90
15133;DHT22;7667;51.232;17.110;2023-04-24T07:22:15;15.30;99.90
15133;DHT22;7667;51.232;17.110;2023-04-24T07:24:44;15.50;99.90
15133;DHT22;7667;51.232;17.110;2023-04-24T07:27:12;15.50;99.90
15133;DHT22;7667;51.232;17.110;2023-04-24T07:29:42;15.80;99.90
15133;DHT22;7667;51.232;17.110;2023-04-24T07:32:11;15.90;99.90
15133;DHT22;7667;51.232;17.110;2023-04-24T07:34:38;15.60;99.90
15133;DHT22;7667;51.232;17.110;2023-04-24T07:37:06;15.70;99.90
15133;DHT22;7667;51.232;17.110;2023-04-24T07:39:33;15.90;99.90
15133;DHT22;7667;51.232;17.110;2023-04-24T07:42:01;15.90;99.90
15133;DHT22;7667;51.232;17.110;2023-04-24T07:44:29;16.00;99.90
15133;DHT22;7667;51.232;17.110;2023-04-24T07:46:57;16.30;99.90
15133;DHT22;7667;51.232;17.110;2023-04-24T07:49:24;16.20;99.90
15133;DHT22;7667;51.232;17.110;2023-04-24T07:51:52;16.20;99.90
15133;DHT22;7667;51.232;17.110;2023-04-24T07:54:19;16.40;99.90
15133;DHT22;7667;51.232;17.110;2023-04-24T07:56:48;16.20;99.90
15133;DHT22;7667;51.232;17.110;2023-04-24T07:59:16;16.40;99.90
15133;DHT22;7667;51.232;17.110;2023-04-24T08:01:44;16.30;99.90
15133;DHT22;7667;51.232;17.110;2023-04-24T08:04:12;16.00;99.90
15133;DHT22;7667;51.232;17.110;2023-04-24T08:06:39;15.80;99.90
15133;DHT22;7667;51.232;17.110;2023-04-24T08:09:07;15.60;99.90
15133;DHT22;7667;51.232;17.110;2023-04-24T08:11:35;15.40;99.90
15133;DHT22;7667;51.232;17.110;2023-04-24T08:14:03;15.40;99.90
15133;DHT22;7667;51.232;17.110;2023-04-24T08:16:31;15.50;99.90
15133;DHT22;7667;51.232;17.110;2023-04-24T08:19:00;15.70;99.90
15133;DHT22;7667;51.232;17.110;2023-04-24T08:21:27;15.70;99.90
15133;DHT22;7667;51.232;17.110;2023-04-24T08:23:55;15.60;99.90
15133;DHT22;7667;51.232;17.110;2023-04-24T08:26:22;15.60;99.90
15133;DHT22;7667;51.232;17.110;2023-04-24T08:28:50;15.50;99.90
15133;DHT22;7667;51.232;17.110;2023-04-24T08:31:18;15.50;99.90
15133;DHT22;7667;51.232;17.110;2023-04-24T08:33:46;15.60;99.90
15133;DHT22;7667;51.232;17.110;2023-04-24T08:36:15;15.70;99.90
15133;DHT22;7667;51.232;17.110;2023-04-24T08:38:42;15.60;99.90
15133;DHT22;7667;51.232;17.110;2023-04-24T08:41:11;15.50;99.90
15133;DHT22;7667;51.232;17.110;2023-04-24T08:43:42;15.50;99.90
15133;DHT22;7667;51.232;17.110;2023-04-24T08:46:10;15.50;99.90
15133;DHT22;7667;51.232;17.110;2023-04-24T08:48:40;15.30;99.90
15133;DHT22;7667;51.232;17.110;2023-04-24T08:51:08;15.10;99.90
15133;DHT22;7667;51.232;17.110;2023-04-24T08:53:36;14.70;99.90
15133;DHT22;7667;51.232;17.110;2023-04-24T08:56:05;14.50;99.90
15133;DHT22;7667;51.232;17.110;2023-04-24T08:58:33;14.40;99.90
15133;DHT22;7667;51.232;17.110;2023-04-24T09:01:03;14.40;99.90
15133;DHT22;7667;51.232;17.110;2023-04-24T09:03:33;14.50;99.90
15133;DHT22;7667;51.232;17.110;2023-04-24T09:06:01;14.80;99.90
15133;DHT22;7667;51.232;17.110;2023-04-24T09:08:29;15.30;99.90
15133;DHT22;7667;51.232;17.110;2023-04-24T09:10:58;15.90;99.90
15133;DHT22;7667;51.232;17.110;2023-04-24T09:13:26;16.50;99.90
15133;DHT22;7667;51.232;17.110;2023-04-24T09:15:54;17.20;99.90
15133;DHT22;7667;51.232;17.110;2023-04-24T09:18:25;16.90;99.90
15133;DHT22;7667;51.232;17.110;2023-04-24T09:21:04;16.80;99.90
15133;DHT22;7667;51.232;17.110;2023-04-24T09:23:34;16.70;99.90
15133;DHT22;7667;51.232;17.110;2023-04-24T09:26:03;17.10;99.90
15133;DHT22;7667;51.232;17.110;2023-04-24T09:28:36;17.40;99.90
15133;DHT22;7667;51.232;17.110;2023-04-24T09:31:09;17.80;99.90
15133;DHT22;7667;51.232;17.110;2023-04-24T09:33:40;18.40;99.90
15133;DHT22;7667;51.232;17.110;2023-04-24T09:36:08;18.10;99.90
15133;DHT22;7667;51.232;17.110;2023-04-24T09:38:37;17.70;99.90
15133;DHT22;7667;51.232;17.110;2023-04-24T09:41:08;17.60;99.90
15133;DHT22;7667;51.232;17.110;2023-04-24T09:43:35;18.00;99.90
15133;DHT22;7667;51.232;17.110;2023-04-24T09:46:07;18.20;99.90
15133;DHT22;7667;51.232;17.110;2023-04-24T09:48:37;17.60;99.90
15133;DHT22;7667;51.232;17.110;2023-04-24T09:51:06;17.70;99.90
15133;DHT22;7667;51.232;17.110;2023-04-24T09:53:37;17.30;99.90
15133;DHT22;7667;51.232;17.110;2023-04-24T09:56:10;17.00;99.90
15133;DHT22;7667;51.232;17.110;2023-04-24T09:58:39;17.00;99.90
15133;DHT22;7667;51.232;17.110;2023-04-24T10:01:07;16.80;99.90
15133;DHT22;7667;51.232;17.110;2023-04-24T10:03:36;16.70;99.90
15133;DHT22;7667;51.232;17.110;2023-04-24T10:06:04;16.70;99.90
15133;DHT22;7667;51.232;17.110;2023-04-24T10:08:37;16.90;99.90
15133;DHT22;7667;51.232;17.110;2023-04-24T10:11:04;16.80;99.90
15133;DHT22;7667;51.232;17.110;2023-04-24T10:13:33;17.20;99.90
15133;DHT22;7667;51.232;17.110;2023-04-24T10:16:03;17.10;99.90
15133;DHT22;7667;51.232;17.110;2023-04-24T10:18:32;17.00;99.90
15133;DHT22;7667;51.232;17.110;2023-04-24T10:21:01;17.00;99.90
15133;DHT22;7667;51.232;17.110;2023-04-24T10:23:30;17.00;99.90
15133;DHT22;7667;51.232;17.110;2023-04-24T10:25:59;17.00;99.90
15133;DHT22;7667;51.232;17.110;2023-04-24T10:28:28;16.60;99.90
15133;DHT22;7667;51.232;17.110;2023-04-24T10:30:57;16.30;99.90
15133;DHT22;7667;51.232;17.110;2023-04-24T10:33:26;16.20;99.90
15133;DHT22;7667;51.232;17.110;2023-04-24T10:35:54;16.20;99.90
15133;DHT22;7667;51.232;17.110;2023-04-24T10:38:25;16.40;99.90
15133;DHT22;7667;51.232;17.110;2023-04-24T10:41:11;16.30;99.90
15133;DHT22;7667;51.232;17.110;2023-04-24T10:44:09;16.30;99.90
15133;DHT22;7667;51.232;17.110;2023-04-24T10:46:44;16.00;99.90
15133;DHT22;7667;51.232;17.110;2023-04-24T10:49:13;15.80;99.90
15133;DHT22;7667;51.232;17.110;2023-04-24T10:51:49;15.80;99.90
15133;DHT22;7667;51.232;17.110;2023-04-24T10:54:51;16.00;99.90
15133;DHT22;7667;51.232;17.110;2023-04-24T10:59:51;17.20;99.90
15133;DHT22;7667;51.232;17.110;2023-04-24T11:02:40;17.70;99.90
15133;DHT22;7667;51.232;17.110;2023-04-24T11:05:16;18.40;99.90
15133;DHT22;7667;51.232;17.110;2023-04-24T11:08:14;18.30;99.90
15133;DHT22;7667;51.232;17.110;2023-04-24T11:10:45;17.40;99.90
15133;DHT22;7667;51.232;17.110;2023-04-24T11:13:21;17.50;99.90
15133;DHT22;7667;51.232;17.110;2023-04-24T11:16:17;17.50;99.90
15133;DHT22;7667;51.232;17.110;2023-04-24T11:19:21;17.00;99.90
15133;DHT22;7667;51.232;17.110;2023-04-24T11:22:03;16.90;99.90
15133;DHT22;7667;51.232;17.110;2023-04-24T11:27:19;16.30;99.90
15133;DHT22;7667;51.232;17.110;2023-04-24T11:32:35;16.40;99.90
15133;DHT22;7667;51.232;17.110;2023-04-24T11:35:07;16.40;99.90
15133;DHT22;7667;51.232;17.110;2023-04-24T11:37:41;16.30;99.90
15133;DHT22;7667;51.232;17.110;2023-04-24T11:40:12;16.10;99.90
15133;DHT22;7667;51.232;17.110;2023-04-24T11:42:44;16.20;99.90
15133;DHT22;7667;51.232;17.110;2023-04-24T11:45:17;16.50;99.90
15133;DHT22;7667;51.232;17.110;2023-04-24T11:47:45;16.90;99.90
15133;DHT22;7667;51.232;17.110;2023-04-24T11:50:17;16.80;99.90
15133;DHT22;7667;51.232;17.110;2023-04-24T11:52:47;16.80;99.90
15133;DHT22;7667;51.232;17.110;2023-04-24T11:57:46;16.90;99.90
15133;DHT22;7667;51.232;17.110;2023-04-24T12:00:16;17.20;99.90
15133;DHT22;7667;51.232;17.110;2023-04-24T12:02:47;17.40;99.90
15133;DHT22;7667;51.232;17.110;2023-04-24T12:05:24;17.70;99.90
15133;DHT22;7667;51.232;17.110;2023-04-24T12:07:54;18.20;99.90
15133;DHT22;7667;51.232;17.110;2023-04-24T12:10:26;18.60;99.90
15133;DHT22;7667;51.232;17.110;2023-04-24T12:12:56;18.10;99.90
15133;DHT22;7667;51.232;17.110;2023-04-24T12:15:25;17.50;99.90
15133;DHT22;7667;51.232;17.110;2023-04-24T12:17:55;17.70;99.90
15133;DHT22;7667;51.232;17.110;2023-04-24T12:20:31;17.50;99.90
15133;DHT22;7667;51.232;17.110;2023-04-24T12:23:00;17.40;99.90
15133;DHT22;7667;51.232;17.110;2023-04-24T12:25:33;17.00;99.90
15133;DHT22;7667;51.232;17.110;2023-04-24T12:30:43;16.60;99.90
15133;DHT22;7667;51.232;17.110;2023-04-24T12:33:12;16.30;99.90
15133;DHT22;7667;51.232;17.110;2023-04-24T12:35:40;16.20;99.90
15133;DHT22;7667;51.232;17.110;2023-04-24T12:38:13;16.20;99.90
15133;DHT22;7667;51.232;17.110;2023-04-24T12:40:42;16.10;99.90
15133;DHT22;7667;51.232;17.110;2023-04-24T12:43:20;15.90;99.90
15133;DHT22;7667;51.232;17.110;2023-04-24T12:45:48;15.80;99.90
15133;DHT22;7667;51.232;17.110;2023-04-24T12:48:15;15.60;99.90
15133;DHT22;7667;51.232;17.110;2023-04-24T12:50:44;15.40;99.90
15133;DHT22;7667;51.232;17.110;2023-04-24T12:53:14;15.40;99.90
15133;DHT22;7667;51.232;17.110;2023-04-24T12:55:42;15.30;99.90
15133;DHT22;7667;51.232;17.110;2023-04-24T12:58:11;15.10;99.90
15133;DHT22;7667;51.232;17.110;2023-04-24T13:00:39;14.60;99.90
15133;DHT22;7667;51.232;17.110;2023-04-24T13:03:06;14.30;99.90
15133;DHT22;7667;51.232;17.110;2023-04-24T13:05:34;14.00;99.90
15133;DHT22;7667;51.232;17.110;2023-04-24T13:08:02;13.80;99.90
15133;DHT22;7667;51.232;17.110;2023-04-24T13:10:30;13.60;99.90
15133;DHT22;7667;51.232;17.110;2023-04-24T13:12:58;13.50;99.90
15133;DHT22;7667;51.232;17.110;2023-04-24T13:15:25;13.40;99.90
15133;DHT22;7667;51.232;17.110;2023-04-24T13:17:53;13.30;99.90
15133;DHT22;7667;51.232;17.110;2023-04-24T13:20:21;13.20;99.90
15133;DHT22;7667;51.232;17.110;2023-04-24T13:22:49;13.10;99.90
15133;DHT22;7667;51.232;17.110;2023-04-24T13:25:17;13.00;99.90
15133;DHT22;7667;51.232;17.110;2023-04-24T13:27:46;13.00;99.90
15133;DHT22;7667;51.232;17.110;2023-04-24T13:30:13;12.90;99.90
15133;DHT22;7667;51.232;17.110;2023-04-24T13:32:41;12.90;99.90
15133;DHT22;7667;51.232;17.110;2023-04-24T13:35:09;12.90;99.90
15133;DHT22;7667;51.232;17.110;2023-04-24T13:37:37;12.90;99.90
15133;DHT22;7667;51.232;17.110;2023-04-24T13:40:05;12.80;99.90
15133;DHT22;7667;51.232;17.110;2023-04-24T13:42:34;12.60;99.90
15133;DHT22;7667;51.232;17.110;2023-04-24T13:45:03;12.40;99.90
15133;DHT22;7667;51.232;17.110;2023-04-24T13:47:50;12.30;99.90
15133;DHT22;7667;51.232;17.110;2023-04-24T13:50:19;12.20;99.90
15133;DHT22;7667;51.232;17.110;2023-04-24T13:52:47;12.20;99.90
15133;DHT22;7667;51.232;17.110;2023-04-24T13:55:15;12.10;99.90
15133;DHT22;7667;51.232;17.110;2023-04-24T13:57:42;12.20;99.90
15133;DHT22;7667;51.232;17.110;2023-04-24T14:00:10;12.20;99.90
15133;DHT22;7667;51.232;17.110;2023-04-24T14:02:38;12.20;99.90
15133;DHT22;7667;51.232;17.110;2023-04-24T14:05:06;12.30;99.90
15133;DHT22;7667;51.232;17.110;2023-04-24T14:07:34;12.40;99.90
15133;DHT22;7667;51.232;17.110;2023-04-24T14:10:02;12.50;99.90
15133;DHT22;7667;51.232;17.110;2023-04-24T14:12:30;12.60;99.90
15133;DHT22;7667;51.232;17.110;2023-04-24T14:14:58;12.60;99.90
15133;DHT22;7667;51.232;17.110;2023-04-24T14:17:26;12.70;99.90
15133;DHT22;7667;51.232;17.110;2023-04-24T14:19:54;12.80;99.90
15133;DHT22;7667;51.232;17.110;2023-04-24T14:22:23;12.90;99.90
15133;DHT22;7667;51.232;17.110;2023-04-24T14:24:51;12.90;99.90
15133;DHT22;7667;51.232;17.110;2023-04-24T14:27:20;12.90;99.90
15133;DHT22;7667;51.232;17.110;2023-04-24T14:29:55;12.90;99.90
15133;DHT22;7667;51.232;17.110;2023-04-24T14:32:29;12.90;99.90
15133;DHT22;7667;51.232;17.110;2023-04-24T14:34:57;12.80;99.90
15133;DHT22;7667;51.232;17.110;2023-04-24T14:37:25;12.70;99.90
15133;DHT22;7667;51.232;17.110;2023-04-24T14:39:52;12.60;99.90
15133;DHT22;7667;51.232;17.110;2023-04-24T14:42:40;12.50;99.90
15133;DHT22;7667;51.232;17.110;2023-04-24T14:45:08;12.50;99.90
15133;DHT22;7667;51.232;17.110;2023-04-24T14:47:37;12.40;99.90
15133;DHT22;7667;51.232;17.110;2023-04-24T14:50:05;12.40;99.90
15133;DHT22;7667;51.232;17.110;2023-04-24T14:52:35;12.40;99.90
15133;DHT22;7667;51.232;17.110;2023-04-24T14:55:03;12.40;99.90
15133;DHT22;7667;51.232;17.110;2023-04-24T14:57:31;12.30;99.90
15133;DHT22;7667;51.232;17.110;2023-04-24T14:59:59;12.30;99.90
15133;DHT22;7667;51.232;17.110;2023-04-24T15:02:27;12.20;99.90
15133;DHT22;7667;51.232;17.110;2023-04-24T15:04:55;12.10;99.90
15133;DHT22;7667;51.232;17.110;2023-04-24T15:07:23;12.20;99.90
15133;DHT22;7667;51.232;17.110;2023-04-24T15:09:52;12.20;99.90
15133;DHT22;7667;51.232;17.110;2023-04-24T15:12:21;12.20;99.90
15133;DHT22;7667;51.232;17.110;2023-04-24T15:14:49;12.20;99.90
15133;DHT22;7667;51.232;17.110;2023-04-24T15:17:17;12.20;99.90
15133;DHT22;7667;51.232;17.110;2023-04-24T15:19:45;12.10;99.90
15133;DHT22;7667;51.232;17.110;2023-04-24T15:22:13;12.00;99.90
15133;DHT22;7667;51.232;17.110;2023-04-24T15:24:41;11.90;99.90
15133;DHT22;7667;51.232;17.110;2023-04-24T15:27:10;11.90;99.90
15133;DHT22;7667;51.232;17.110;2023-04-24T15:29:38;11.90;99.90
15133;DHT22;7667;51.232;17.110;2023-04-24T15:32:06;11.80;99.90
15133;DHT22;7667;51.232;17.110;2023-04-24T15:34:36;11.80;99.90
15133;DHT22;7667;51.232;17.110;2023-04-24T15:37:04;11.70;99.90
15133;DHT22;7667;51.232;17.110;2023-04-24T15:39:32;11.70;99.90
15133;DHT22;7667;51.232;17.110;2023-04-24T15:41:59;11.70;99.90
15133;DHT22;7667;51.232;17.110;2023-04-24T15:44:27;11.60;99.90
15133;DHT22;7667;51.232;17.110;2023-04-24T15:46:55;11.60;99.90
15133;DHT22;7667;51.232;17.110;2023-04-24T15:49:22;11.50;99.90
15133;DHT22;7667;51.232;17.110;2023-04-24T15:51:50;11.40;99.90
15133;DHT22;7667;51.232;17.110;2023-04-24T15:54:18;11.40;99.90